Time;durP1;ratioP1;P1;durP2;ratioP2;P2;SDS_P1;SDS_P2;PMS_P1;PMS_P2;Temp;Humidity;BMP_temperature;BMP_pressure;BME280_temperature;BME280_humidity;BME280_pressure;Samples;Min_cycle;Max_cycle;Signal;HPM_P1;HPM_P2
2023/08/11 00:00:23;;;;;;;5.30;3.80;;;17.10;96.10;;;;;;21037309;28;20265;-67
2023/08/11 00:10:25;;;;;;;7.63;4.30;;;17.10;96.30;;;;;;21032821;28;20241;-66
2023/08/11 00:20:28;;;;;;;11.00;5.10;;;17.00;96.60;;;;;;21025493;28;20233;-68
2023/08/11 00:30:30;;;;;;;7.20;4.20;;;16.80;96.90;;;;;;21039526;28;20290;-68
2023/08/11 00:40:31;;;;;;;7.60;4.17;;;16.70;97.20;;;;;;21045085;28;20226;-71
2023/08/11 00:50:33;;;;;;;6.37;3.87;;;16.60;97.50;;;;;;21042320;28;20324;-71
2023/08/11 01:00:36;;;;;;;4.73;3.90;;;16.60;97.80;;;;;;21051492;28;20280;-69
2023/08/11 01:11:01;;;;;;;5.07;3.83;;;16.50;97.70;;;;;;21041385;28;20285;-72
2023/08/11 01:21:11;;;;;;;7.13;4.23;;;16.50;98.00;;;;;;21016982;28;20333;-66
2023/08/11 01:31:13;;;;;;;8.70;4.10;;;16.30;98.20;;;;;;21005733;28;20241;-65
2023/08/11 01:41:15;;;;;;;5.27;3.90;;;16.20;98.60;;;;;;21004940;28;20286;-67
2023/08/11 01:51:16;;;;;;;4.93;3.93;;;16.20;98.60;;;;;;21004432;28;20204;-69
2023/08/11 02:01:18;;;;;;;5.50;4.20;;;16.10;98.80;;;;;;21003422;28;20249;-67
2023/08/11 02:11:21;;;;;;;6.13;4.20;;;16.00;99.00;;;;;;21003364;28;20242;-71
2023/08/11 02:21:23;;;;;;;5.13;4.53;;;15.90;99.00;;;;;;21001407;28;20325;-71
2023/08/11 02:31:26;;;;;;;5.30;4.20;;;15.80;99.10;;;;;;21001262;28;20324;-70
2023/08/11 02:41:28;;;;;;;7.83;4.33;;;15.80;99.40;;;;;;21000126;28;20334;-67
2023/08/11 02:51:30;;;;;;;4.97;4.40;;;15.70;99.40;;;;;;20998933;28;20221;-70
2023/08/11 03:01:32;;;;;;;11.63;4.67;;;15.60;99.50;;;;;;20998149;28;20245;-71
2023/08/11 03:11:34;;;;;;;9.90;4.30;;;15.60;99.70;;;;;;20997690;28;20709;-64
2023/08/11 03:21:36;;;;;;;5.23;4.40;;;15.60;99.80;;;;;;20996822;28;20327;-66
2023/08/11 03:31:38;;;;;;;6.03;4.17;;;15.50;99.80;;;;;;20996491;28;20298;-66
2023/08/11 03:41:40;;;;;;;8.27;4.23;;;15.50;99.90;;;;;;20996260;28;20227;-69
2023/08/11 03:51:41;;;;;;;9.47;4.80;;;15.40;99.90;;;;;;20995367;28;20302;-65
2023/08/11 04:01:43;;;;;;;6.77;4.50;;;15.40;99.90;;;;;;20995241;28;20264;-66
2023/08/11 04:11:45;;;;;;;6.90;4.73;;;15.40;99.90;;;;;;21010290;28;20280;-66
2023/08/11 04:21:47;;;;;;;9.37;4.50;;;15.20;99.90;;;;;;21011558;28;20698;-70
2023/08/11 04:31:48;;;;;;;7.00;4.57;;;15.30;99.90;;;;;;21010315;28;20636;-69
2023/08/11 04:41:50;;;;;;;8.90;4.33;;;15.30;99.90;;;;;;21007525;28;20233;-70
2023/08/11 04:51:52;;;;;;;9.87;4.60;;;15.20;99.90;;;;;;21008611;28;20210;-70
2023/08/11 05:01:55;;;;;;;13.43;5.20;;;15.20;99.90;;;;;;21007751;28;20269;-69
2023/08/11 05:11:57;;;;;;;17.50;7.17;;;15.30;99.90;;;;;;21008134;28;20746;-70
2023/08/11 05:21:58;;;;;;;12.50;5.80;;;15.40;99.90;;;;;;21006720;28;20241;-66
2023/08/11 05:32:00;;;;;;;22.27;6.20;;;15.60;99.90;;;;;;21006188;28;20686;-68
2023/08/11 05:42:02;;;;;;;20.13;6.63;;;15.70;99.90;;;;;;21005605;28;20236;-66
2023/08/11 05:52:04;;;;;;;23.30;7.17;;;16.00;99.90;;;;;;21004591;28;20574;-67
2023/08/11 06:02:06;;;;;;;12.77;6.77;;;16.20;99.90;;;;;;21003188;28;20692;-69
2023/08/11 06:12:08;;;;;;;10.37;6.47;;;16.40;99.90;;;;;;21002564;28;20239;-69
2023/08/11 06:22:10;;;;;;;17.13;7.27;;;16.60;99.90;;;;;;21000557;28;20248;-69
2023/08/11 06:32:15;;;;;;;20.97;7.87;;;16.80;99.80;;;;;;20996118;28;20726;-69
2023/08/11 06:42:17;;;;;;;13.73;7.27;;;17.00;99.70;;;;;;20999124;28;20318;-71
2023/08/11 06:52:18;;;;;;;16.17;9.00;;;17.30;99.70;;;;;;20998605;28;20207;-68
2023/08/11 07:02:20;;;;;;;15.27;8.67;;;17.40;99.40;;;;;;20996770;28;20238;-67
2023/08/11 07:12:22;;;;;;;11.43;7.33;;;17.70;99.20;;;;;;21033077;28;20256;-70
2023/08/11 07:22:24;;;;;;;10.63;7.07;;;18.10;98.70;;;;;;21032049;28;20658;-69
2023/08/11 07:32:26;;;;;;;11.63;6.73;;;18.40;98.50;;;;;;21034287;28;20300;-69
2023/08/11 07:42:28;;;;;;;15.73;7.20;;;18.70;98.20;;;;;;21020703;28;20572;-70
2023/08/11 07:52:29;;;;;;;18.77;6.17;;;19.00;97.90;;;;;;21036488;28;20309;-70
2023/08/11 08:02:31;;;;;;;12.97;5.50;;;19.30;97.50;;;;;;21033469;28;20235;-69
2023/08/11 08:12:34;;;;;;;11.67;7.37;;;19.50;97.00;;;;;;21032286;28;20238;-71
2023/08/11 08:22:36;;;;;;;7.30;4.43;;;19.70;96.30;;;;;;21000478;28;20238;-66
2023/08/11 08:32:39;;;;;;;11.23;4.40;;;20.00;95.70;;;;;;20993739;28;20302;-66
2023/08/11 08:42:41;;;;;;;19.57;4.13;;;20.20;94.90;;;;;;21051671;28;20231;-69
2023/08/11 08:52:43;;;;;;;9.17;5.63;;;20.50;94.00;;;;;;21082877;28;20245;-69
2023/08/11 09:02:45;;;;;;;8.73;4.43;;;20.80;93.30;;;;;;21091989;28;20317;-69
2023/08/11 09:12:48;;;;;;;8.40;3.40;;;20.90;92.20;;;;;;21091391;28;20230;-67
2023/08/11 09:22:50;;;;;;;5.90;2.93;;;21.20;91.40;;;;;;21091032;28;20275;-68
2023/08/11 09:32:51;;;;;;;6.47;3.20;;;21.50;90.70;;;;;;21089332;28;20552;-68
2023/08/11 09:42:55;;;;;;;4.70;2.60;;;21.80;89.40;;;;;;21088550;28;20227;-68
2023/08/11 09:52:59;;;;;;;3.23;2.50;;;22.10;87.30;;;;;;21087833;28;20210;-69
2023/08/11 10:03:09;;;;;;;5.93;3.27;;;22.40;85.60;;;;;;21084135;28;20234;-68
2023/08/11 10:13:17;;;;;;;4.20;2.40;;;22.60;85.20;;;;;;21086202;28;20297;-69
2023/08/11 10:23:19;;;;;;;4.70;2.37;;;22.90;81.90;;;;;;21085060;28;20241;-68
2023/08/11 10:33:21;;;;;;;2.67;2.47;;;23.00;80.30;;;;;;21084375;28;20693;-71
2023/08/11 10:43:40;;;;;;;3.47;2.00;;;23.20;79.30;;;;;;21082316;28;20327;-68
2023/08/11 10:53:42;;;;;;;6.30;2.70;;;;;;;;;;21082186;28;20211;-68
2023/08/11 11:03:45;;;;;;;4.23;2.10;;;;;;;;;;21081973;28;20234;-69
2023/08/11 11:13:54;;;;;;;2.43;2.00;;;;;;;;;;21080665;28;20269;-69
2023/08/11 11:23:57;;;;;;;3.77;2.80;;;;;;;;;;21079813;28;20234;-72
2023/08/11 11:33:59;;;;;;;2.17;1.70;;;;;;;;;;21079153;28;20205;-70
2023/08/11 11:44:01;;;;;;;3.77;2.70;;;;;;;;;;21078874;28;20308;-72
2023/08/11 11:54:05;;;;;;;3.63;2.30;;;;;;;;;;21077940;28;20293;-70
2023/08/11 12:04:07;;;;;;;3.00;1.97;;;23.40;77.80;;;;;;21078096;28;20241;-69
2023/08/11 12:14:11;;;;;;;3.53;2.10;;;;;;;;;;21078680;28;20266;-69
2023/08/11 12:24:16;;;;;;;2.17;1.90;;;;;;;;;;21079402;28;20272;-69
2023/08/11 12:34:19;;;;;;;4.53;1.90;;;;;;;;;;21096286;28;20278;-69
2023/08/11 12:44:21;;;;;;;3.95;1.90;;;;;;;;;;21094418;28;20330;-70
2023/08/11 12:54:23;;;;;;;4.07;1.98;;;;;;;;;;21093096;28;20607;-69
2023/08/11 13:04:25;;;;;;;1.85;1.60;;;;;;;;;;21091367;28;20231;-69
2023/08/11 13:14:27;;;;;;;2.70;1.80;;;;;;;;;;21091132;28;20210;-69
2023/08/11 13:24:29;;;;;;;3.42;1.63;;;;;;;;;;21090799;28;20317;-69
2023/08/11 13:34:31;;;;;;;1.83;1.40;;;;;;;;;;21089517;28;20617;-69
2023/08/11 13:44:34;;;;;;;1.63;1.45;;;;;;;;;;21088306;28;20596;-69
2023/08/11 13:54:36;;;;;;;3.50;1.60;;;;;;;;;;21070848;28;20268;-73
2023/08/11 14:04:38;;;;;;;2.75;1.60;;;;;;;;;;21086952;28;20237;-69
2023/08/11 14:14:41;;;;;;;2.45;1.60;;;;;;;;;;21086298;28;20230;-70
2023/08/11 14:24:43;;;;;;;3.30;2.40;;;;;;;;;;21085784;28;20245;-69
2023/08/11 14:34:45;;;;;;;3.92;2.05;;;;;;;;;;21084783;28;20281;-72
2023/08/11 14:44:47;;;;;;;2.10;1.50;;;;;;;;;;21084758;28;20268;-72
2023/08/11 14:54:49;;;;;;;1.60;1.33;;;;;;;;;;21082801;28;20234;-71
2023/08/11 15:04:53;;;;;;;1.90;1.55;;;;;;;;;;21082141;28;20237;-72
2023/08/11 15:14:55;;;;;;;12.65;1.50;;;;;;;;;;21064140;28;20238;-73
2023/08/11 15:25:01;;;;;;;3.92;1.55;;;;;;;;;;21081516;28;20325;-73
2023/08/11 15:35:03;;;;;;;5.07;2.10;;;;;;;;;;21080461;28;20210;-72
2023/08/11 15:45:06;;;;;;;2.83;2.53;;;;;;;;;;21079683;28;20245;-72
2023/08/11 15:55:08;;;;;;;3.60;2.45;;;;;;;;;;21079508;28;20205;-70
2023/08/11 16:05:10;;;;;;;3.05;1.55;;;;;;;;;;21078285;28;20319;-69
2023/08/11 16:15:12;;;;;;;1.70;1.50;;;;;;;;;;21078965;28;20644;-69
2023/08/11 16:25:14;;;;;;;1.85;1.50;;;27.50;59.00;;;;;;21078130;28;20602;-69
2023/08/11 16:35:16;;;;;;;2.17;1.38;;;28.70;53.40;;;;;;21077624;28;20663;-70
2023/08/11 16:45:18;;;;;;;3.10;1.60;;;;;;;;;;21077009;28;20273;-69
2023/08/11 16:55:20;;;;;;;1.88;1.40;;;;;;;;;;21077126;28;20294;-67
2023/08/11 17:05:25;;;;;;;2.88;1.50;;;;;;;;;;21076281;28;20250;-67
2023/08/11 17:15:27;;;;;;;4.15;1.63;;;;;;;;;;21084496;28;20570;-71
2023/08/11 17:25:29;;;;;;;1.42;1.33;;;28.40;54.70;;;;;;21090579;28;20245;-68
2023/08/11 17:35:31;;;;;;;1.58;1.48;;;;;;;;;;21089513;28;20213;-70
2023/08/11 17:45:33;;;;;;;2.00;1.55;;;;;;;;;;21088746;28;20234;-71
2023/08/11 17:55:35;;;;;;;2.50;1.50;;;;;;;;;;21089130;28;20234;-71
2023/08/11 18:05:40;;;;;;;1.87;1.77;;;28.40;55.20;;;;;;21087661;28;20274;-71
2023/08/11 18:15:42;;;;;;;4.38;1.85;;;;;;;;;;21087315;28;20579;-71
2023/08/11 18:25:44;;;;;;;2.97;2.07;;;27.00;58.40;;;;;;21084560;28;20307;-71
2023/08/11 18:35:46;;;;;;;7.47;2.47;;;26.40;62.70;;;;;;21085217;28;20617;-71
2023/08/11 18:45:48;;;;;;;3.57;2.37;;;26.10;65.40;;;;;;21083855;28;20234;-68
2023/08/11 18:55:49;;;;;;;4.13;2.30;;;25.80;67.80;;;;;;21083558;28;20717;-68
2023/08/11 19:05:52;;;;;;;4.90;2.03;;;25.50;69.60;;;;;;21082952;28;20270;-68
2023/08/11 19:15:53;;;;;;;2.40;1.80;;;25.30;71.10;;;;;;21082205;28;20249;-68
2023/08/11 19:25:55;;;;;;;4.17;2.57;;;25.10;72.90;;;;;;21081803;28;20755;-71
2023/08/11 19:35:58;;;;;;;11.10;2.60;;;24.80;74.60;;;;;;21080601;28;20391;-71
2023/08/11 19:45:59;;;;;;;8.83;3.90;;;24.60;76.00;;;;;;21080340;28;20241;-72
2023/08/11 19:56:01;;;;;;;5.93;3.63;;;24.40;77.80;;;;;;21079561;28;20209;-68
2023/08/11 20:06:03;;;;;;;18.83;5.80;;;24.10;79.70;;;;;;21078695;28;20334;-68
2023/08/11 20:16:05;;;;;;;8.57;3.97;;;23.90;81.80;;;;;;21078314;28;20224;-68
2023/08/11 20:26:06;;;;;;;8.83;2.97;;;23.70;83.70;;;;;;21078253;28;20291;-72
2023/08/11 20:36:08;;;;;;;10.50;3.67;;;23.60;85.30;;;;;;21077618;28;20573;-68
2023/08/11 20:46:10;;;;;;;5.07;3.77;;;23.30;87.20;;;;;;21079707;28;20280;-69
2023/08/11 20:56:12;;;;;;;10.60;4.03;;;23.10;89.30;;;;;;21075431;28;20211;-68
2023/08/11 21:06:14;;;;;;;5.07;3.70;;;22.90;90.30;;;;;;21091738;28;20280;-69
2023/08/11 21:16:16;;;;;;;6.13;4.10;;;22.70;91.30;;;;;;21091326;28;20198;-71
2023/08/11 21:26:17;;;;;;;7.90;3.80;;;22.50;92.30;;;;;;21072909;28;20230;-68
2023/08/11 21:36:19;;;;;;;13.10;4.50;;;22.40;93.20;;;;;;21090032;28;20225;-70
2023/08/11 21:46:21;;;;;;;9.47;4.50;;;22.10;94.00;;;;;;21088822;28;20712;-67
2023/08/11 21:56:24;;;;;;;7.73;5.30;;;22.00;94.90;;;;;;21088718;28;20222;-68
2023/08/11 22:06:25;;;;;;;9.47;5.60;;;21.80;95.40;;;;;;21087084;28;20603;-67
2023/08/11 22:16:27;;;;;;;11.30;4.87;;;21.70;96.20;;;;;;21086569;28;20213;-68
2023/08/11 22:26:29;;;;;;;15.27;5.20;;;21.60;96.70;;;;;;21085990;28;20706;-68
2023/08/11 22:36:31;;;;;;;12.33;4.77;;;21.40;97.20;;;;;;21085130;28;20198;-67
2023/08/11 22:46:32;;;;;;;11.63;4.27;;;21.20;97.80;;;;;;21084402;28;20234;-67
2023/08/11 22:56:34;;;;;;;10.97;4.70;;;21.00;98.40;;;;;;21084255;28;20241;-67
2023/08/11 23:06:36;;;;;;;8.30;3.90;;;21.00;98.90;;;;;;21083047;28;20333;-68
2023/08/11 23:16:38;;;;;;;17.57;4.47;;;20.90;99.20;;;;;;21082240;28;20612;-68
2023/08/11 23:26:42;;;;;;;13.63;5.47;;;20.80;99.40;;;;;;21081483;28;20239;-68
2023/08/11 23:36:44;;;;;;;11.70;4.77;;;20.70;99.70;;;;;;21080383;28;20347;-69
2023/08/11 23:46:48;;;;;;;9.20;3.60;;;24.20;99.90;;;;;;21080226;28;20728;-72
2023/08/11 23:56:49;;;;;;;9.63;4.73;;;20.60;99.90;;;;;;21080193;28;20578;-71
